Time;durP1;ratioP1;P1;durP2;ratioP2;P2;SDS_P1;SDS_P2;PMS_P1;PMS_P2;Temp;Humidity;BMP_temperature;BMP_pressure;BME280_temperature;BME280_humidity;BME280_pressure;Samples;Min_cycle;Max_cycle;Signal;HPM_P1;HPM_P2
2022/10/30 00:00:34;;;;;;;5.13;4.83;;;;;;;13.14;100.00;100580.53;5023842;28;20494;-57
2022/10/30 00:03:01;;;;;;;8.20;3.17;;;;;;;13.13;100.00;100575.25;5030583;28;20455;-57
2022/10/30 00:05:28;;;;;;;4.60;4.20;;;;;;;13.13;100.00;100577.94;5013877;28;20539;-57
2022/10/30 00:07:55;;;;;;;20.77;7.57;;;;;;;13.10;100.00;100583.38;5025590;28;20803;-57
2022/10/30 00:10:23;;;;;;;19.43;7.27;;;;;;;13.09;100.00;100574.50;5011087;28;20431;-57
2022/10/30 00:12:50;;;;;;;12.93;5.93;;;;;;;13.07;100.00;100580.81;5010890;28;21113;-57
2022/10/30 00:15:16;;;;;;;34.80;4.87;;;;;;;12.96;100.00;100582.06;5021119;28;20550;-57
2022/10/30 00:17:43;;;;;;;31.80;6.60;;;;;;;13.07;100.00;100580.81;5027715;28;20455;-57
2022/10/30 00:20:09;;;;;;;20.17;5.47;;;;;;;13.12;100.00;100574.41;5024486;28;20456;-57
2022/10/30 00:22:36;;;;;;;7.83;4.83;;;;;;;13.13;100.00;100570.78;5030438;28;20467;-57
2022/10/30 00:25:03;;;;;;;6.90;6.30;;;;;;;13.16;100.00;100576.06;5024489;28;20491;-57
2022/10/30 00:27:30;;;;;;;14.20;5.10;;;;;;;13.21;100.00;100570.56;5018366;28;20477;-57
2022/10/30 00:29:56;;;;;;;10.10;7.47;;;;;;;13.15;100.00;100573.41;5020841;28;20437;-57
2022/10/30 00:32:23;;;;;;;15.10;8.00;;;;;;;13.20;100.00;100567.03;5021913;28;20464;-57
2022/10/30 00:34:49;;;;;;;6.60;4.97;;;;;;;13.19;100.00;100567.97;5025359;28;20445;-57
2022/10/30 00:37:16;;;;;;;14.50;5.93;;;;;;;13.19;100.00;100569.78;5020768;28;20426;-57
2022/10/30 00:39:42;;;;;;;6.57;5.53;;;;;;;13.25;100.00;100565.06;5024798;28;20538;-57
2022/10/30 00:42:13;;;;;;;6.50;5.73;;;;;;;13.25;100.00;100558.84;5018665;28;20455;-57
2022/10/30 00:44:43;;;;;;;13.80;4.60;;;;;;;13.33;100.00;100555.00;5030062;28;20464;-57
2022/10/30 00:47:30;;;;;;;5.93;5.53;;;;;;;13.32;100.00;100565.75;5020178;28;20452;-57
2022/10/30 00:50:12;;;;;;;17.13;5.30;;;;;;;13.32;100.00;100561.28;4997227;28;20834;-57
2022/10/30 00:52:46;;;;;;;15.20;4.87;;;;;;;13.19;100.00;100557.28;5024499;28;20459;-57
2022/10/30 00:55:18;;;;;;;7.50;5.90;;;;;;;13.27;100.00;100565.00;5029810;28;20526;-57
2022/10/30 00:57:46;;;;;;;7.10;4.33;;;;;;;13.25;100.00;100557.06;5027898;28;20457;-57
2022/10/30 01:00:13;;;;;;;12.00;6.80;;;;;;;13.22;100.00;100559.84;5020493;28;20482;-57
2022/10/30 01:02:42;;;;;;;20.23;8.13;;;;;;;13.11;100.00;100556.63;5025258;28;20431;-57
2022/10/30 01:05:14;;;;;;;12.57;6.70;;;;;;;12.95;100.00;100555.44;5018435;28;20622;-57
2022/10/30 01:07:40;;;;;;;12.73;6.20;;;;;;;12.93;100.00;100552.81;5008775;28;20462;-57
2022/10/30 01:10:08;;;;;;;4.60;4.23;;;;;;;12.94;100.00;100554.56;5026970;28;20455;-57
2022/10/30 01:12:35;;;;;;;18.30;5.77;;;;;;;12.88;100.00;100554.75;5029424;28;20505;-57
2022/10/30 01:15:02;;;;;;;9.10;5.90;;;;;;;12.91;100.00;100552.00;5028166;28;20484;-57
2022/10/30 01:17:40;;;;;;;9.73;5.50;;;;;;;12.81;100.00;100547.88;5028940;28;20429;-57
2022/10/30 01:20:13;;;;;;;5.67;4.93;;;;;;;12.73;100.00;100549.94;5029688;28;20430;-57
2022/10/30 01:22:58;;;;;;;7.00;4.80;;;;;;;12.67;100.00;100536.81;5029583;28;20451;-57
2022/10/30 01:26:05;;;;;;;9.00;5.00;;;;;;;12.72;100.00;100556.19;5022326;28;20492;-57
2022/10/30 01:28:48;;;;;;;11.93;5.90;;;;;;;12.79;100.00;100557.75;5026356;28;20447;-57
2022/10/30 01:31:34;;;;;;;7.80;5.57;;;;;;;12.79;100.00;100551.53;5017540;28;20924;-58
2022/10/30 01:34:14;;;;;;;7.20;6.17;;;;;;;12.68;100.00;100555.44;5021042;28;21277;-57
2022/10/30 01:37:06;;;;;;;12.20;5.07;;;;;;;12.97;100.00;100553.56;5022992;28;20430;-57
2022/10/30 01:39:36;;;;;;;4.63;3.20;;;;;;;12.79;100.00;100556.88;5033622;28;20880;-57
2022/10/30 01:42:39;;;;;;;5.50;4.70;;;;;;;12.58;100.00;100553.97;5033848;28;20485;-58
2022/10/30 01:45:06;;;;;;;5.13;4.73;;;;;;;12.67;100.00;100553.69;5031925;28;20445;-58
2022/10/30 01:47:50;;;;;;;9.00;5.77;;;;;;;12.71;100.00;100541.09;5001298;28;20539;-58
2022/10/30 01:50:36;;;;;;;9.90;4.70;;;;;;;12.72;100.00;100551.72;5011238;28;20480;-57
2022/10/30 01:53:31;;;;;;;10.50;4.17;;;;;;;12.78;100.00;100550.66;5015294;28;20459;-57
2022/10/30 01:56:16;;;;;;;17.40;3.23;;;;;;;12.75;100.00;100554.31;5009692;28;20472;-57
2022/10/30 01:59:04;;;;;;;6.50;5.90;;;;;;;12.89;100.00;100555.66;5013701;28;20456;-57
2022/10/30 02:01:34;;;;;;;8.40;5.87;;;;;;;12.87;100.00;100561.00;5003048;28;20539;-57
2022/10/30 02:04:02;;;;;;;10.33;6.43;;;;;;;12.78;100.00;100542.66;5015304;28;20452;-57
2022/10/30 02:06:34;;;;;;;4.57;4.27;;;;;;;12.51;100.00;100551.56;5028133;28;20477;-57
2022/10/30 02:09:01;;;;;;;14.00;4.43;;;;;;;12.49;100.00;100546.28;5033255;28;20517;-57
2022/10/30 02:11:28;;;;;;;4.90;4.60;;;;;;;12.50;100.00;100548.03;5023729;28;20840;-57
2022/10/30 02:13:57;;;;;;;15.80;5.07;;;;;;;12.62;100.00;100536.97;5013220;28;20456;-57
2022/10/30 02:16:23;;;;;;;6.83;6.30;;;;;;;12.74;100.00;100541.00;5013214;28;20930;-58
2022/10/30 02:18:50;;;;;;;8.03;5.57;;;;;;;12.70;100.00;100540.25;5026446;28;20510;-57
2022/10/30 02:21:16;;;;;;;9.80;5.17;;;;;;;12.66;100.00;100543.94;5023318;28;20459;-57
2022/10/30 02:23:43;;;;;;;8.00;6.10;;;;;;;12.70;100.00;100536.69;5029102;28;21015;-57
2022/10/30 02:26:09;;;;;;;4.00;3.77;;;;;;;12.73;100.00;100541.94;5012800;28;20486;-57
2022/10/30 02:28:36;;;;;;;4.87;4.47;;;;;;;12.74;100.00;100541.88;5026326;28;20487;-57
2022/10/30 02:31:02;;;;;;;4.77;4.47;;;;;;;12.71;100.00;100543.78;5032864;28;20871;-57
2022/10/30 02:33:29;;;;;;;6.00;4.80;;;;;;;12.71;100.00;100544.66;5017135;28;20873;-57
2022/10/30 02:35:55;;;;;;;5.80;5.03;;;;;;;12.78;100.00;100544.47;5015291;28;20476;-57
2022/10/30 02:38:21;;;;;;;15.17;5.40;;;;;;;12.80;100.00;100546.16;5029610;28;20459;-58
2022/10/30 02:40:48;;;;;;;5.90;4.20;;;;;;;12.83;100.00;100547.84;5032607;28;20426;-57
2022/10/30 02:43:14;;;;;;;5.93;4.90;;;;;;;12.83;100.00;100539.84;5032253;28;20448;-57
2022/10/30 02:45:40;;;;;;;9.57;6.37;;;;;;;12.89;100.00;100550.31;5023136;28;20549;-57
2022/10/30 02:48:07;;;;;;;6.83;5.97;;;;;;;12.88;100.00;100548.53;5026077;28;20519;-57
2022/10/30 02:50:33;;;;;;;6.73;4.97;;;;;;;12.83;100.00;100553.16;5024058;28;20456;-57
2022/10/30 02:52:59;;;;;;;4.60;4.30;;;;;;;12.87;100.00;100552.13;5028461;28;20423;-57
2022/10/30 02:55:26;;;;;;;27.53;4.70;;;;;;;12.75;100.00;100548.97;5017362;28;20805;-57
2022/10/30 02:57:53;;;;;;;5.80;4.90;;;;;;;12.94;100.00;100554.56;5017750;28;20438;-57
2022/10/30 03:00:19;;;;;;;12.17;4.23;;;;;;;12.82;100.00;100554.09;5032527;28;20457;-57
2022/10/30 03:02:46;;;;;;;7.13;3.83;;;;;;;13.16;100.00;100549.38;5032309;28;20426;-57
2022/10/30 03:05:12;;;;;;;6.83;4.47;;;;;;;12.88;100.00;100548.53;5028608;28;20460;-57
2022/10/30 03:07:39;;;;;;;24.07;5.00;;;;;;;12.87;100.00;100555.66;5012385;28;20460;-58
2022/10/30 03:10:05;;;;;;;5.27;4.77;;;;;;;12.85;100.00;100552.19;5024284;28;20956;-57
2022/10/30 03:12:32;;;;;;;8.73;5.40;;;;;;;12.82;100.00;100554.09;5018713;28;20451;-57
2022/10/30 03:14:58;;;;;;;8.17;5.70;;;;;;;12.81;100.00;100552.34;5030791;28;20508;-57
2022/10/30 03:17:24;;;;;;;11.50;6.87;;;;;;;12.78;100.00;100544.47;5029653;28;20451;-57
2022/10/30 03:19:51;;;;;;;3.87;3.57;;;;;;;12.79;100.00;100546.22;5031100;28;20554;-57
2022/10/30 03:22:18;;;;;;;6.00;5.07;;;;;;;12.55;100.00;100550.53;5031147;28;20937;-57
2022/10/30 03:24:45;;;;;;;6.77;6.17;;;;;;;12.55;100.00;100545.22;5023390;28;20479;-57
2022/10/30 03:27:11;;;;;;;8.97;3.73;;;;;;;12.68;100.00;100539.44;5017361;28;20487;-57
2022/10/30 03:29:37;;;;;;;4.50;3.90;;;;;;;12.70;100.00;100540.25;5029727;28;20477;-57
2022/10/30 03:32:08;;;;;;;4.10;3.23;;;;;;;12.66;100.00;100546.59;5026775;28;20893;-57
2022/10/30 03:34:35;;;;;;;22.07;7.30;;;;;;;12.69;100.00;100542.97;5024400;28;20467;-57
2022/10/30 03:37:01;;;;;;;7.13;4.10;;;;;;;12.69;100.00;100549.16;5016611;28;20513;-57
2022/10/30 03:39:27;;;;;;;5.87;4.23;;;;;;;12.66;100.00;100549.28;5029131;28;20455;-57
2022/10/30 03:41:54;;;;;;;9.20;6.03;;;;;;;12.84;100.00;100544.25;5030703;28;20452;-57
2022/10/30 03:44:20;;;;;;;5.00;4.10;;;;;;;12.65;100.00;100547.53;5030612;28;21121;-57
2022/10/30 03:46:47;;;;;;;6.10;5.57;;;;;;;12.65;100.00;100547.53;5014727;28;20491;-57
2022/10/30 03:49:13;;;;;;;7.70;5.70;;;;;;;12.60;100.00;100557.47;5030443;28;20510;-57
2022/10/30 03:51:39;;;;;;;13.83;5.00;;;;;;;12.58;100.00;100563.78;5008239;28;20460;-57
2022/10/30 03:54:06;;;;;;;11.77;6.17;;;;;;;12.50;100.00;100564.03;5029978;28;20493;-57
2022/10/30 03:56:32;;;;;;;14.43;5.67;;;;;;;12.44;100.00;100564.22;5021767;28;20874;-57
2022/10/30 03:58:58;;;;;;;5.23;4.77;;;;;;;12.56;100.00;100561.16;5030300;28;20484;-57
2022/10/30 04:01:25;;;;;;;5.93;5.40;;;;;;;12.52;100.00;100553.31;5030382;28;20452;-57
2022/10/30 04:03:51;;;;;;;5.90;4.40;;;;;;;12.40;100.00;100554.56;5021415;28;20488;-57
2022/10/30 04:06:18;;;;;;;10.10;4.83;;;;;;;12.25;100.00;100555.06;5008814;28;20537;-57
2022/10/30 04:08:44;;;;;;;9.87;5.30;;;;;;;12.35;100.00;100564.53;5018115;28;20474;-57
2022/10/30 04:11:11;;;;;;;7.83;3.80;;;;;;;12.28;100.00;100561.16;5029913;28;21022;-57
2022/10/30 04:13:37;;;;;;;5.20;4.27;;;;;;;12.08;100.00;100564.47;5029810;28;20463;-57
2022/10/30 04:16:05;;;;;;;17.77;4.10;;;;;;;12.12;100.00;100562.56;5025644;28;20485;-57
2022/10/30 04:18:32;;;;;;;3.90;3.60;;;;;;;11.92;100.00;100559.59;5027221;28;20761;-57
2022/10/30 04:20:59;;;;;;;4.93;4.40;;;;;;;12.00;100.00;100561.13;5029726;28;21015;-57
2022/10/30 04:23:25;;;;;;;5.67;3.80;;;;;;;12.10;100.00;100551.94;5014375;28;20452;-57
2022/10/30 04:25:52;;;;;;;5.10;3.73;;;;;;;12.25;100.00;100547.06;5012222;28;20558;-58
2022/10/30 04:28:20;;;;;;;3.07;2.87;;;;;;;12.37;100.00;100554.69;5006967;28;20490;-58
2022/10/30 04:30:46;;;;;;;14.33;3.23;;;;;;;12.44;100.00;100562.41;5029790;28;20578;-58
2022/10/30 04:33:13;;;;;;;4.00;3.10;;;;;;;12.48;100.00;100560.56;5016241;28;20916;-58
2022/10/30 04:35:40;;;;;;;4.40;4.20;;;;;;;12.48;100.00;100559.69;5023307;28;20472;-58
2022/10/30 04:38:09;;;;;;;5.00;4.70;;;;;;;12.52;100.00;100562.19;5025548;28;20962;-57
2022/10/30 04:40:38;;;;;;;4.40;4.10;;;;;;;12.52;100.00;100558.66;5028794;28;20456;-57
2022/10/30 04:43:05;;;;;;;3.90;3.70;;;;;;;12.66;100.00;100559.06;5023023;28;20459;-58
2022/10/30 04:45:31;;;;;;;3.27;3.00;;;;;;;12.55;100.00;100555.88;5029293;28;20502;-58
2022/10/30 04:48:03;;;;;;;7.53;4.00;;;;;;;12.59;100.00;100561.06;5015678;28;20545;-57
2022/10/30 04:50:31;;;;;;;3.67;3.20;;;;;;;12.58;100.00;100559.31;5029703;28;20455;-58
2022/10/30 04:53:04;;;;;;;11.83;4.83;;;;;;;12.60;100.00;100557.47;5027057;28;20455;-58
2022/10/30 04:55:31;;;;;;;4.17;3.73;;;;;;;12.59;100.00;100554.84;5029194;28;20529;-58
2022/10/30 04:57:59;;;;;;;6.37;4.20;;;;;;;12.53;100.00;100555.06;5029223;28;20426;-58
2022/10/30 05:00:26;;;;;;;4.33;4.00;;;;;;;12.49;100.00;100540.09;5029066;28;20479;-58
2022/10/30 05:02:52;;;;;;;3.23;3.03;;;;;;;12.57;100.00;100543.38;5016419;28;20456;-57
2022/10/30 05:05:19;;;;;;;3.40;3.20;;;;;;;12.63;100.00;100543.19;5021033;28;20473;-57
2022/10/30 05:07:46;;;;;;;8.40;5.27;;;;;;;12.65;100.00;100536.88;5028197;28;20495;-57
2022/10/30 05:10:17;;;;;;;7.00;3.33;;;;;;;12.60;100.00;100546.78;5028846;28;20489;-57
2022/10/30 05:12:44;;;;;;;4.77;3.70;;;;;;;12.66;100.00;100548.41;5018972;28;20442;-58
2022/10/30 05:15:12;;;;;;;3.93;3.17;;;;;;;12.67;100.00;100542.16;5028360;28;20458;-58
2022/10/30 05:17:39;;;;;;;3.57;3.27;;;;;;;12.61;100.00;100548.56;5028964;28;20505;-57
2022/10/30 05:20:06;;;;;;;3.03;2.80;;;;;;;12.64;100.00;100540.47;5015656;28;20460;-58
2022/10/30 05:22:33;;;;;;;3.63;2.93;;;;;;;12.68;100.00;100543.88;5021578;28;20942;-58
2022/10/30 05:24:59;;;;;;;10.83;4.17;;;;;;;12.65;100.00;100541.31;5027844;28;20580;-58
2022/10/30 05:27:25;;;;;;;4.03;3.73;;;;;;;12.53;100.00;100545.25;5016669;28;20519;-58
2022/10/30 05:29:52;;;;;;;5.40;5.10;;;;;;;12.61;100.00;100537.00;5028530;28;20513;-58
2022/10/30 05:32:18;;;;;;;4.83;4.50;;;;;;;12.69;100.00;100543.84;5016915;28;20511;-58
2022/10/30 05:34:45;;;;;;;7.77;5.40;;;;;;;12.66;100.00;100543.94;5022768;28;20450;-58
2022/10/30 05:37:11;;;;;;;4.63;4.27;;;;;;;12.66;100.00;100541.28;5018924;28;20447;-58
2022/10/30 05:39:37;;;;;;;10.20;4.00;;;;;;;12.46;100.00;100554.38;5028395;28;20460;-58
2022/10/30 05:42:04;;;;;;;11.60;4.70;;;;;;;12.41;100.00;100549.19;5005660;28;21012;-57
2022/10/30 05:44:35;;;;;;;7.10;5.10;;;;;;;12.56;100.00;100547.81;5010760;28;20481;-57
2022/10/30 05:47:21;;;;;;;8.33;4.27;;;;;;;12.60;100.00;100551.25;5008974;28;20571;-58
2022/10/30 05:49:47;;;;;;;5.80;5.30;;;;;;;12.58;100.00;100551.31;5027346;28;20855;-58
2022/10/30 05:52:14;;;;;;;4.40;3.73;;;;;;;12.62;100.00;100552.09;5016669;28;20461;-58
2022/10/30 05:54:40;;;;;;;5.63;4.70;;;;;;;12.63;100.00;100540.50;5014273;28;20471;-58
2022/10/30 05:57:06;;;;;;;28.57;4.73;;;;;;;12.60;100.00;100544.13;5008832;28;20453;-58
2022/10/30 05:59:33;;;;;;;3.00;2.80;;;;;;;12.59;100.00;100546.84;5027525;28;20723;-58
2022/10/30 06:01:59;;;;;;;9.13;2.23;;;;;;;12.61;100.00;100548.56;5028768;28;20452;-58
2022/10/30 06:04:26;;;;;;;14.60;3.33;;;;;;;12.51;100.00;100551.56;5016374;28;21013;-57
2022/10/30 06:06:52;;;;;;;3.07;2.80;;;;;;;12.50;100.00;100556.03;5026008;28;20517;-57
2022/10/30 06:09:19;;;;;;;3.07;2.87;;;;;;;12.35;100.00;100552.06;5022249;28;20449;-58
2022/10/30 06:11:45;;;;;;;3.27;3.00;;;;;;;12.41;100.00;100551.00;5021448;28;20884;-57
2022/10/30 06:14:11;;;;;;;4.77;4.57;;;;;;;12.43;100.00;100562.47;5028078;28;20483;-57
2022/10/30 06:16:38;;;;;;;3.50;3.30;;;;;;;12.45;100.00;100560.63;5021333;28;20423;-56
2022/10/30 06:19:04;;;;;;;3.60;3.03;;;;;;;12.41;100.00;100557.19;5028965;28;20487;-56
2022/10/30 06:21:31;;;;;;;3.00;2.73;;;;;;;12.41;100.00;100551.84;5032146;28;20422;-56
2022/10/30 06:23:57;;;;;;;7.47;3.27;;;;;;;12.43;100.00;100560.69;5028326;28;20503;-56
2022/10/30 06:26:24;;;;;;;3.30;3.00;;;;;;;12.29;100.00;100548.69;5011547;28;20538;-56
2022/10/30 06:28:50;;;;;;;3.80;3.20;;;;;;;12.43;100.00;100558.00;5022235;28;20448;-55
2022/10/30 06:31:17;;;;;;;3.00;2.80;;;;;;;12.46;100.00;100557.03;5022211;28;20427;-56
2022/10/30 06:33:43;;;;;;;20.33;3.13;;;;;;;12.48;100.00;100551.69;5014907;28;20470;-56
2022/10/30 06:36:09;;;;;;;3.60;2.80;;;;;;;12.45;100.00;100563.28;5015735;28;20480;-56
2022/10/30 06:38:36;;;;;;;3.60;3.40;;;;;;;12.38;100.00;100561.75;5031258;28;20459;-56
2022/10/30 06:41:02;;;;;;;2.00;1.90;;;;;;;12.37;100.00;100565.34;5022513;28;20976;-53
2022/10/30 06:43:29;;;;;;;5.10;2.73;;;;;;;12.44;100.00;100562.41;5007555;28;20435;-56
2022/10/30 06:45:58;;;;;;;4.13;3.60;;;;;;;12.45;100.00;100568.63;5010302;28;20476;-56
2022/10/30 06:48:25;;;;;;;3.30;3.00;;;;;;;12.49;100.00;100567.63;5015185;28;21196;-56
2022/10/30 06:50:59;;;;;;;3.70;3.40;;;;;;;12.44;100.00;100564.22;5023470;28;20505;-56
2022/10/30 06:53:25;;;;;;;7.23;4.10;;;;;;;12.39;100.00;100569.69;5031615;28;20442;-55
2022/10/30 06:55:59;;;;;;;6.40;3.33;;;;;;;12.47;100.00;100569.44;5031373;28;20476;-56
2022/10/30 06:58:27;;;;;;;2.43;2.33;;;;;;;12.49;100.00;100574.75;5031399;28;20423;-56
2022/10/30 07:00:54;;;;;;;2.83;2.63;;;;;;;12.59;100.00;100582.38;5031357;28;20510;-56
2022/10/30 07:03:20;;;;;;;4.13;2.77;;;;;;;12.52;100.00;100577.31;5031245;28;20487;-56
2022/10/30 07:05:47;;;;;;;3.00;2.70;;;;;;;12.55;100.00;100579.88;5028202;28;20475;-56
2022/10/30 07:08:13;;;;;;;2.43;2.33;;;;;;;12.51;100.00;100580.91;5031456;28;20499;-56
2022/10/30 07:10:39;;;;;;;3.60;3.40;;;;;;;12.60;100.00;100580.59;5031118;28;20452;-56
2022/10/30 07:13:07;;;;;;;4.50;4.20;;;;;;;12.62;100.00;100582.31;5031496;28;20880;-56
2022/10/30 07:15:34;;;;;;;3.77;3.50;;;;;;;12.61;100.00;100583.22;5031040;28;20509;-56
2022/10/30 07:18:02;;;;;;;4.40;4.00;;;;;;;12.67;100.00;100585.69;5030978;28;20451;-56
2022/10/30 07:20:32;;;;;;;4.63;3.13;;;;;;;12.68;100.00;100600.78;5030865;28;20937;-56
2022/10/30 07:22:59;;;;;;;18.60;3.50;;;;;;;12.60;100.00;100592.13;5031261;28;20475;-58
2022/10/30 07:25:26;;;;;;;5.07;4.67;;;;;;;12.70;100.00;100596.25;5026155;28;21036;-56
2022/10/30 07:27:53;;;;;;;7.23;4.97;;;;;;;12.60;100.00;100588.59;5022453;28;20879;-58
2022/10/30 07:30:23;;;;;;;4.10;3.63;;;;;;;12.45;100.00;100593.50;5030006;28;20936;-56
2022/10/30 07:32:58;;;;;;;4.33;4.03;;;;;;;12.27;100.00;100580.75;5020109;28;20471;-56
2022/10/30 07:35:26;;;;;;;3.10;2.87;;;;;;;12.21;100.00;100588.06;5001990;28;20487;-56
2022/10/30 07:37:53;;;;;;;4.97;4.50;;;;;;;12.34;100.00;100587.66;5024538;28;20498;-56
2022/10/30 07:40:19;;;;;;;5.10;4.50;;;;;;;12.20;100.00;100586.28;5030670;28;20455;-56
2022/10/30 07:42:46;;;;;;;17.93;3.50;;;;;;;12.26;100.00;100592.31;5030450;28;20940;-56
2022/10/30 07:45:13;;;;;;;3.07;2.87;;;;;;;12.31;100.00;100593.03;5030593;28;20472;-56
2022/10/30 07:47:41;;;;;;;14.93;2.90;;;;;;;12.54;100.00;100588.78;5030655;28;20495;-56
2022/10/30 07:50:08;;;;;;;5.00;4.50;;;;;;;12.62;100.00;100592.97;5030694;28;20894;-56
2022/10/30 07:52:35;;;;;;;4.90;4.43;;;;;;;12.59;100.00;100594.84;5030474;28;20521;-56
2022/10/30 07:55:02;;;;;;;5.27;4.77;;;;;;;12.62;100.00;100598.31;5030695;28;21034;-57
2022/10/30 07:57:41;;;;;;;4.90;4.13;;;;;;;12.66;100.00;100599.94;5030529;28;20451;-56
2022/10/30 08:00:11;;;;;;;3.83;3.63;;;;;;;12.72;100.00;100604.19;5030720;28;20452;-56
2022/10/30 08:02:38;;;;;;;3.57;3.37;;;;;;;12.78;100.00;100600.47;5030514;28;20461;-57
2022/10/30 08:05:05;;;;;;;4.30;3.90;;;;;;;12.79;100.00;100604.88;5029792;28;21055;-56
2022/10/30 08:07:33;;;;;;;6.23;4.47;;;;;;;12.57;100.00;100602.03;5027505;28;20497;-56
2022/10/30 08:10:00;;;;;;;4.57;4.37;;;;;;;12.89;100.00;100595.66;5029982;28;20452;-56
2022/10/30 08:12:27;;;;;;;4.10;3.80;;;;;;;12.91;100.00;100605.38;5029763;28;20465;-56
2022/10/30 08:14:53;;;;;;;3.77;3.57;;;;;;;12.91;100.00;100605.38;5029896;28;20479;-56
2022/10/30 08:17:20;;;;;;;3.43;3.20;;;;;;;12.96;100.00;100608.75;5030292;28;20865;-56
2022/10/30 08:19:46;;;;;;;5.90;3.57;;;;;;;13.08;100.00;100602.13;5030135;28;20798;-56
2022/10/30 08:22:13;;;;;;;2.17;2.07;;;;;;;12.98;100.00;100606.00;5029678;28;20509;-56
2022/10/30 08:24:40;;;;;;;3.67;3.40;;;;;;;12.84;100.00;100601.13;5028177;28;20456;-56
2022/10/30 08:27:06;;;;;;;8.00;3.30;;;;;;;12.72;100.00;100599.72;5016495;28;20491;-56
2022/10/30 08:29:33;;;;;;;10.73;3.03;;;;;;;12.90;100.00;100590.28;5029803;28;20510;-56
2022/10/30 08:32:00;;;;;;;3.77;3.47;;;;;;;12.95;100.00;100593.66;5026234;28;20464;-56
2022/10/30 08:34:26;;;;;;;3.63;3.43;;;;;;;13.22;100.00;100593.69;5021650;28;20526;-56
2022/10/30 08:36:53;;;;;;;3.93;3.73;;;;;;;13.32;100.00;100598.66;5019832;28;20460;-56
2022/10/30 08:39:19;;;;;;;4.37;3.97;;;;;;;13.23;100.00;100592.75;5029610;28;20459;-56
2022/10/30 08:41:46;;;;;;;4.30;3.33;;;;;;;13.33;100.00;100594.19;5029069;28;20509;-56
2022/10/30 08:44:13;;;;;;;4.97;3.73;;;;;;;13.43;100.00;100595.63;5029619;28;20442;-56
2022/10/30 08:46:39;;;;;;;2.30;2.20;;;;;;;13.46;100.00;100583.94;5029387;28;20545;-56
2022/10/30 08:49:05;;;;;;;3.43;3.23;;;;;;;13.48;100.00;100580.28;5029567;28;20549;-56
2022/10/30 08:51:33;;;;;;;3.40;3.07;;;;;;;13.47;100.00;100583.00;5029495;28;20433;-56
2022/10/30 08:54:00;;;;;;;4.03;3.53;;;;;;;13.68;100.00;100590.22;5028988;28;20449;-56
2022/10/30 08:56:27;;;;;;;2.77;2.57;;;;;;;13.95;100.00;100591.00;5029567;28;20456;-56
2022/10/30 08:58:53;;;;;;;19.47;2.90;;;;;;;14.08;100.00;100597.63;5029460;28;20456;-56
2022/10/30 09:01:19;;;;;;;5.00;3.77;;;;;;;14.17;100.00;100583.06;5029341;28;20456;-57
2022/10/30 09:03:46;;;;;;;3.17;2.93;;;;;;;14.20;100.00;100582.94;5029560;28;20542;-56
2022/10/30 09:06:13;;;;;;;4.70;3.33;;;;;;;14.12;100.00;100574.38;5025891;28;20498;-56
2022/10/30 09:08:39;;;;;;;4.67;3.90;;;;;;;14.08;100.00;100570.03;5028939;28;20913;-56
2022/10/30 09:11:05;;;;;;;3.40;3.20;;;;;;;14.23;100.00;100578.34;5029090;28;20458;-56
2022/10/30 09:13:32;;;;;;;3.90;3.60;;;;;;;14.31;100.00;100571.81;5029312;28;20464;-57
2022/10/30 09:16:00;;;;;;;5.17;4.30;;;;;;;14.39;100.00;100575.94;5003189;28;20484;-55
2022/10/30 09:18:27;;;;;;;4.30;3.90;;;;;;;14.38;100.00;100571.50;5029000;28;20505;-55
2022/10/30 09:20:53;;;;;;;3.90;3.60;;;;;;;14.27;100.00;100573.75;5028952;28;20509;-55
2022/10/30 09:23:19;;;;;;;3.83;3.53;;;;;;;14.50;100.00;100586.22;5029053;28;20486;-55
2022/10/30 09:25:46;;;;;;;4.20;3.90;;;;;;;14.87;100.00;100584.75;5021931;28;21063;-55
2022/10/30 09:28:12;;;;;;;6.70;4.90;;;;;;;14.66;100.00;100589.16;5023065;28;20522;-55
2022/10/30 09:30:39;;;;;;;5.17;4.77;;;;;;;14.70;100.00;100589.00;5028998;28;20476;-56
2022/10/30 09:33:05;;;;;;;26.07;3.40;;;;;;;14.64;100.00;100589.22;5017317;28;20435;-55
2022/10/30 09:35:32;;;;;;;5.00;4.60;;;;;;;14.70;100.00;100585.44;5025002;28;20473;-55
2022/10/30 09:37:58;;;;;;;3.30;3.10;;;;;;;14.73;100.00;100579.97;5022927;28;20437;-55
2022/10/30 09:40:58;;;;;;;6.93;3.60;;;;;;;15.09;100.00;100580.25;5027681;28;20438;-55
2022/10/30 09:43:52;;;;;;;5.13;4.70;;;;;;;15.05;100.00;100581.28;5028931;28;20426;-55
2022/10/30 09:47:07;;;;;;;6.17;5.70;;;;;;;14.98;100.00;100586.06;5028784;28;20428;-55
2022/10/30 09:50:03;;;;;;;4.10;3.80;;;;;;;15.08;100.00;100587.41;4954492;28;20446;-55
2022/10/30 09:52:58;;;;;;;3.40;3.17;;;;;;;15.26;100.00;100584.88;5006630;28;20430;-55
2022/10/30 09:55:46;;;;;;;31.27;4.93;;;;;;;15.11;100.00;100581.06;5032412;28;20937;-56
2022/10/30 09:58:45;;;;;;;11.73;5.90;;;;;;;14.82;100.00;100584.94;5032514;28;20446;-56
2022/10/30 10:01:37;;;;;;;4.60;4.23;;;;;;;15.13;100.00;100581.84;5032821;28;20447;-55
2022/10/30 10:04:27;;;;;;;4.37;4.00;;;;;;;14.89;100.00;100581.06;5032371;28;20945;-55
2022/10/30 10:07:00;;;;;;;6.50;4.67;;;;;;;15.10;100.00;100585.53;5029380;28;20822;-55
2022/10/30 10:09:30;;;;;;;6.07;5.00;;;;;;;15.37;100.00;100585.28;5006263;28;20469;-55
2022/10/30 10:12:23;;;;;;;23.27;4.60;;;;;;;15.53;100.00;100581.00;5032125;28;21036;-57
2022/10/30 10:14:50;;;;;;;10.10;5.00;;;;;;;15.85;100.00;100581.38;5024108;28;20462;-56
2022/10/30 10:17:26;;;;;;;4.77;4.47;;;;;;;16.04;100.00;100578.75;5032126;28;20517;-56
2022/10/30 10:20:02;;;;;;;10.97;5.27;;;;;;;16.18;100.00;100574.47;5032526;28;20451;-56
2022/10/30 10:22:39;;;;;;;12.90;6.00;;;;;;;16.49;100.00;100584.59;5032299;28;20489;-56
2022/10/30 10:25:12;;;;;;;7.00;4.30;;;;;;;16.52;100.00;100580.88;5031977;28;20467;-56
2022/10/30 10:27:55;;;;;;;4.47;4.17;;;;;;;16.80;100.00;100573.25;5031943;28;20527;-55
2022/10/30 10:30:23;;;;;;;4.33;3.90;;;;;;;16.88;100.00;100571.06;5032057;28;20837;-55
2022/10/30 10:33:06;;;;;;;5.67;5.27;;;;;;;16.85;100.00;100563.13;5022308;28;20435;-56
2022/10/30 10:35:58;;;;;;;9.87;4.13;;;;;;;17.09;100.00;100562.84;5003910;28;21053;-56
2022/10/30 10:38:37;;;;;;;7.50;5.00;;;;;;;17.31;100.00;100558.13;5029866;28;20447;-56
2022/10/30 10:41:18;;;;;;;5.20;4.80;;;;;;;17.21;100.00;100562.22;5032235;28;20429;-57
2022/10/30 10:44:03;;;;;;;7.07;3.47;;;;;;;17.34;100.00;100557.97;5031909;28;20422;-56
2022/10/30 10:47:05;;;;;;;3.90;3.60;;;;;;;17.44;100.00;100551.16;5031619;28;20506;-56
2022/10/30 10:49:56;;;;;;;7.27;4.70;;;;;;;17.45;100.00;100555.59;5005789;28;20607;-57
2022/10/30 10:52:32;;;;;;;6.17;4.63;;;;;;;17.54;100.00;100551.53;5031676;28;20455;-57
2022/10/30 10:55:03;;;;;;;4.60;4.30;;;;;;;17.80;100.00;100543.91;5031620;28;20471;-57
2022/10/30 10:57:36;;;;;;;6.37;4.83;;;;;;;17.80;100.00;100552.84;5031607;28;20823;-57
2022/10/30 11:00:18;;;;;;;4.20;4.00;;;;;;;17.87;100.00;100548.88;5031585;28;20426;-57
2022/10/30 11:03:13;;;;;;;7.87;5.30;;;;;;;17.83;100.00;100550.03;5031341;28;20473;-57
2022/10/30 11:05:50;;;;;;;5.27;3.83;;;;;;;18.08;100.00;100543.25;5026684;28;20464;-57
2022/10/30 11:08:26;;;;;;;8.67;5.83;;;;;;;18.14;100.00;100545.63;5031823;28;20527;-56
2022/10/30 11:10:58;;;;;;;5.10;4.80;;;;;;;18.05;100.00;100541.63;5013082;28;20466;-57
2022/10/30 11:13:29;;;;;;;10.87;6.00;;;;;;;18.07;100.00;100537.00;5016057;28;20493;-57
2022/10/30 11:16:05;;;;;;;4.57;4.00;;;;;;;18.21;100.00;100541.63;5023948;28;20491;-56
2022/10/30 11:18:33;;;;;;;6.53;5.90;;;;;;;18.30;100.00;100533.03;5025812;28;20452;-56
2022/10/30 11:21:10;;;;;;;3.90;3.60;;;;;;;18.58;100.00;100540.41;5031708;28;20517;-57
2022/10/30 11:23:39;;;;;;;5.10;4.63;;;;;;;18.68;100.00;100538.97;5018112;28;20522;-56
2022/10/30 11:26:21;;;;;;;10.00;4.93;;;;;;;18.59;100.00;100526.84;5018259;28;20454;-56
2022/10/30 11:28:48;;;;;;;5.07;4.67;;;;;;;18.85;100.00;100530.75;5018292;28;20470;-57